Time;durP1;ratioP1;P1;durP2;ratioP2;P2;SDS_P1;SDS_P2;PMS_P1;PMS_P2;Temp;Humidity;BMP_temperature;BMP_pressure;BME280_temperature;BME280_humidity;BME280_pressure;Samples;Min_cycle;Max_cycle;Signal;HPM_P1;HPM_P2
2021/10/14 04:01:07;;;;;;;15.47;12.83;;;6.20;99.90;;;;;;6221555;22;20438;-71
2021/10/14 04:03:34;;;;;;;12.23;11.13;;;6.20;99.90;;;;;;6246696;23;20457;-71
2021/10/14 04:06:01;;;;;;;15.80;14.00;;;6.30;99.90;;;;;;6247239;23;20415;-72
2021/10/14 04:08:27;;;;;;;14.40;12.83;;;6.30;99.90;;;;;;6248234;23;20434;-71
2021/10/14 04:10:54;;;;;;;12.50;11.20;;;6.40;99.90;;;;;;6247076;22;20431;-71
2021/10/14 04:13:22;;;;;;;12.47;11.27;;;6.40;99.90;;;;;;6247339;23;20473;-71
2021/10/14 04:15:48;;;;;;;13.87;11.60;;;6.40;99.90;;;;;;6247192;23;20419;-71
2021/10/14 04:18:17;;;;;;;13.50;12.20;;;6.40;99.90;;;;;;6247043;23;20407;-71
2021/10/14 04:20:44;;;;;;;18.73;12.47;;;6.50;99.90;;;;;;6248308;22;20431;-71
2021/10/14 04:23:11;;;;;;;16.13;12.73;;;6.50;99.90;;;;;;6246812;23;20939;-71
2021/10/14 04:25:38;;;;;;;13.87;12.43;;;6.50;99.90;;;;;;6247340;23;20733;-71
2021/10/14 04:28:05;;;;;;;12.50;11.20;;;6.60;99.90;;;;;;6247391;23;20486;-71
2021/10/14 04:30:33;;;;;;;11.57;10.47;;;6.50;99.90;;;;;;6247132;22;20431;-71
2021/10/14 04:32:59;;;;;;;13.20;10.67;;;6.50;99.90;;;;;;6249345;23;20407;-72
2021/10/14 04:35:28;;;;;;;12.57;11.37;;;6.50;99.90;;;;;;6252751;23;20422;-71
2021/10/14 04:37:54;;;;;;;10.60;9.70;;;6.60;99.90;;;;;;6251187;23;20921;-72
2021/10/14 04:40:21;;;;;;;12.63;10.40;;;6.60;99.90;;;;;;6249826;22;20599;-72
2021/10/14 04:42:48;;;;;;;12.60;11.27;;;6.60;99.90;;;;;;6249056;23;20950;-72
2021/10/14 04:45:16;;;;;;;11.90;10.80;;;6.60;99.90;;;;;;6249125;23;20411;-71
2021/10/14 04:47:42;;;;;;;12.93;11.73;;;6.60;99.90;;;;;;6249781;23;20481;-71
2021/10/14 04:50:09;;;;;;;17.23;10.80;;;6.60;99.90;;;;;;6248988;23;20423;-71
2021/10/14 04:52:38;;;;;;;19.17;12.33;;;6.60;99.90;;;;;;6248486;23;20922;-73
2021/10/14 04:55:05;;;;;;;14.77;12.50;;;6.50;99.90;;;;;;6248532;23;20762;-73
2021/10/14 04:57:32;;;;;;;19.40;15.20;;;6.60;99.90;;;;;;6248336;23;20911;-73
2021/10/14 04:59:59;;;;;;;18.13;16.33;;;6.50;99.90;;;;;;6249078;23;20402;-72
2021/10/14 05:02:25;;;;;;;20.00;15.90;;;6.60;99.90;;;;;;6248307;22;20442;-71
2021/10/14 05:04:52;;;;;;;17.00;15.33;;;6.60;99.90;;;;;;6248929;23;20425;-73
2021/10/14 05:07:19;;;;;;;18.30;15.20;;;6.70;99.90;;;;;;6248332;23;20891;-71
2021/10/14 05:09:47;;;;;;;17.17;15.53;;;6.70;99.90;;;;;;6248424;23;20417;-72
2021/10/14 05:12:15;;;;;;;14.73;13.03;;;6.70;99.90;;;;;;6248869;22;20434;-72
2021/10/14 05:14:42;;;;;;;13.80;12.47;;;6.70;99.90;;;;;;6249232;23;20410;-72
2021/10/14 05:17:08;;;;;;;12.80;10.10;;;6.80;99.90;;;;;;6249043;23;20411;-72
2021/10/14 05:19:35;;;;;;;11.50;10.40;;;6.80;99.90;;;;;;6248968;23;20411;-72
2021/10/14 05:22:02;;;;;;;13.57;11.60;;;6.70;99.90;;;;;;6250442;22;20438;-72
2021/10/14 05:24:29;;;;;;;14.10;12.77;;;6.70;99.90;;;;;;6250809;23;20437;-71
2021/10/14 05:26:57;;;;;;;12.33;11.13;;;6.70;99.90;;;;;;6248692;23;20417;-71
2021/10/14 05:29:24;;;;;;;13.47;12.10;;;6.80;99.90;;;;;;6248142;23;20417;-71
2021/10/14 05:31:50;;;;;;;11.70;10.50;;;6.70;99.90;;;;;;6248486;22;20431;-72
2021/10/14 05:34:17;;;;;;;14.73;12.37;;;6.70;99.90;;;;;;6248446;23;20414;-72
2021/10/14 05:36:44;;;;;;;10.43;9.53;;;6.80;99.90;;;;;;6248637;23;20426;-72
2021/10/14 05:39:11;;;;;;;9.97;8.60;;;6.80;99.90;;;;;;6248643;23;20399;-72
2021/10/14 05:41:38;;;;;;;9.83;9.03;;;6.90;99.90;;;;;;6248529;22;20431;-73
2021/10/14 05:44:07;;;;;;;10.57;9.57;;;6.90;99.90;;;;;;6248136;23;20450;-72
2021/10/14 05:46:34;;;;;;;10.20;9.30;;;6.90;99.90;;;;;;6247670;23;20415;-72
2021/10/14 05:49:00;;;;;;;10.07;8.97;;;6.80;99.90;;;;;;6248204;23;20418;-73
2021/10/14 05:51:27;;;;;;;10.10;8.67;;;6.90;99.90;;;;;;6247806;22;20442;-72
2021/10/14 05:53:54;;;;;;;11.10;8.10;;;6.80;99.90;;;;;;6248831;23;20786;-72
2021/10/14 05:56:23;;;;;;;8.80;7.87;;;6.80;99.90;;;;;;6248693;23;20725;-73
2021/10/14 05:58:49;;;;;;;9.40;7.97;;;6.80;99.90;;;;;;6248216;23;20411;-73
2021/10/14 06:01:17;;;;;;;9.80;8.20;;;6.80;99.90;;;;;;6247617;22;20963;-73
2021/10/14 06:03:44;;;;;;;8.17;7.40;;;6.80;99.90;;;;;;6248417;23;20441;-73
2021/10/14 06:06:11;;;;;;;9.87;8.07;;;6.90;99.90;;;;;;6248094;23;20395;-72
2021/10/14 06:08:37;;;;;;;8.93;8.13;;;6.90;99.90;;;;;;6248446;23;20418;-72
2021/10/14 06:11:04;;;;;;;12.03;7.77;;;7.00;99.90;;;;;;6248294;22;20435;-72
2021/10/14 06:13:31;;;;;;;19.07;8.73;;;7.00;99.90;;;;;;6248381;23;20387;-73
2021/10/14 06:15:58;;;;;;;10.10;8.17;;;7.10;99.90;;;;;;6248036;23;20396;-72
2021/10/14 06:18:26;;;;;;;9.10;7.50;;;7.10;99.90;;;;;;6248212;23;20779;-72
2021/10/14 06:20:52;;;;;;;8.97;8.17;;;7.20;99.90;;;;;;6248112;22;20431;-72
2021/10/14 06:23:19;;;;;;;10.40;7.90;;;7.30;99.90;;;;;;6247660;23;20797;-72
2021/10/14 06:25:46;;;;;;;10.20;8.80;;;7.30;99.90;;;;;;6247701;23;20949;-71
2021/10/14 06:28:12;;;;;;;21.17;8.03;;;7.30;99.90;;;;;;6247872;23;20395;-72
2021/10/14 06:30:39;;;;;;;8.87;7.90;;;7.30;99.90;;;;;;6247541;22;20935;-73
2021/10/14 06:33:06;;;;;;;11.00;8.47;;;7.30;99.90;;;;;;6247583;23;20411;-72
2021/10/14 06:35:34;;;;;;;11.53;8.10;;;7.40;99.90;;;;;;6247416;23;20415;-73
2021/10/14 06:38:01;;;;;;;8.13;7.43;;;7.40;99.90;;;;;;6247293;23;20433;-72
2021/10/14 06:40:27;;;;;;;12.13;8.20;;;7.30;99.90;;;;;;6247495;22;20411;-71
2021/10/14 06:42:54;;;;;;;7.90;6.90;;;7.30;99.90;;;;;;6248420;23;20434;-73
2021/10/14 06:45:21;;;;;;;10.23;7.63;;;7.40;99.90;;;;;;6248829;23;20461;-73
2021/10/14 06:47:47;;;;;;;12.30;7.13;;;7.60;99.90;;;;;;6247508;23;20414;-72
2021/10/14 06:50:14;;;;;;;6.83;6.23;;;7.50;99.90;;;;;;6248432;22;20402;-72
2021/10/14 06:52:42;;;;;;;9.30;7.00;;;7.70;99.90;;;;;;6247632;23;20434;-72
2021/10/14 06:55:10;;;;;;;7.43;6.73;;;7.80;99.90;;;;;;6247314;23;20931;-72
2021/10/14 06:57:37;;;;;;;12.50;6.77;;;7.90;99.90;;;;;;6247462;23;20414;-72
2021/10/14 07:00:06;;;;;;;6.30;5.70;;;8.00;99.90;;;;;;6247590;23;20415;-72
2021/10/14 07:02:33;;;;;;;9.27;6.57;;;8.10;99.90;;;;;;6246941;22;20442;-72
2021/10/14 07:05:02;;;;;;;7.90;7.10;;;8.20;99.90;;;;;;6247817;23;20411;-72
2021/10/14 07:07:28;;;;;;;8.10;6.87;;;8.10;99.90;;;;;;6247725;23;20417;-72
2021/10/14 07:09:57;;;;;;;9.40;6.47;;;8.10;99.90;;;;;;6248097;23;20402;-72
2021/10/14 07:12:28;;;;;;;9.40;6.10;;;8.20;99.90;;;;;;6247740;22;20454;-73
2021/10/14 07:14:55;;;;;;;8.40;6.47;;;8.20;99.90;;;;;;6247464;23;20398;-73
2021/10/14 07:17:22;;;;;;;7.90;6.60;;;8.00;99.90;;;;;;6247483;23;20441;-72
2021/10/14 07:19:48;;;;;;;7.03;6.33;;;8.00;99.90;;;;;;6248024;23;20899;-73
2021/10/14 07:22:15;;;;;;;8.07;6.13;;;8.10;99.90;;;;;;6251799;22;20427;-72
2021/10/14 07:24:42;;;;;;;7.43;6.57;;;8.00;99.90;;;;;;6262353;23;20438;-72
2021/10/14 07:27:10;;;;;;;7.30;6.60;;;7.90;99.90;;;;;;6261673;23;20418;-72
2021/10/14 07:29:37;;;;;;;11.10;7.40;;;8.00;99.90;;;;;;6261009;23;20418;-70
2021/10/14 07:32:06;;;;;;;10.63;6.67;;;8.20;99.90;;;;;;6249228;22;20954;-70
2021/10/14 07:34:33;;;;;;;6.70;5.87;;;8.40;99.90;;;;;;6248349;23;20473;-70
2021/10/14 07:37:00;;;;;;;7.73;6.93;;;8.50;99.90;;;;;;6248518;23;20434;-70
2021/10/14 07:39:27;;;;;;;8.93;6.30;;;8.70;99.90;;;;;;6248088;23;20410;-69
2021/10/14 07:41:53;;;;;;;7.57;6.57;;;8.80;99.90;;;;;;6247979;22;20457;-69
2021/10/14 07:44:21;;;;;;;9.43;7.17;;;9.20;99.90;;;;;;6248194;23;20444;-69
2021/10/14 07:46:49;;;;;;;6.20;5.60;;;9.90;99.90;;;;;;6248733;23;20411;-69
2021/10/14 07:49:16;;;;;;;6.53;5.83;;;10.60;99.90;;;;;;6248097;23;20435;-68
2021/10/14 07:51:43;;;;;;;7.57;6.13;;;11.00;99.90;;;;;;6247319;22;20989;-69
2021/10/14 07:54:10;;;;;;;7.60;7.00;;;11.40;99.90;;;;;;6248011;23;20398;-66
2021/10/14 07:56:37;;;;;;;6.23;5.70;;;11.90;99.90;;;;;;6247644;23;20415;-68
2021/10/14 07:59:04;;;;;;;6.80;6.20;;;12.60;99.90;;;;;;6248025;23;20469;-71
2021/10/14 08:01:32;;;;;;;8.70;6.20;;;12.80;99.90;;;;;;6247260;22;20765;-71
2021/10/14 08:03:59;;;;;;;6.73;5.90;;;12.60;99.90;;;;;;6247721;23;20442;-70
2021/10/14 08:06:25;;;;;;;7.13;6.37;;;12.70;99.90;;;;;;6247299;23;20412;-71
2021/10/14 08:08:52;;;;;;;9.10;6.07;;;12.90;99.90;;;;;;6248434;23;20411;-71
2021/10/14 08:11:19;;;;;;;10.17;5.60;;;13.40;99.90;;;;;;6249584;22;20431;-72
2021/10/14 08:13:45;;;;;;;9.73;5.70;;;13.50;99.90;;;;;;6249607;23;20712;-71
2021/10/14 08:16:12;;;;;;;7.87;7.00;;;13.30;99.90;;;;;;6249970;23;20410;-68
2021/10/14 08:18:40;;;;;;;8.20;6.33;;;13.10;99.90;;;;;;6249392;23;20903;-69
2021/10/14 08:21:07;;;;;;;9.83;5.70;;;12.90;99.90;;;;;;6249289;22;20431;-68
2021/10/14 08:23:34;;;;;;;10.03;6.70;;;13.20;99.90;;;;;;6248636;23;20419;-69
2021/10/14 08:26:01;;;;;;;6.20;5.60;;;13.30;99.90;;;;;;6249286;23;20417;-69
2021/10/14 08:28:27;;;;;;;7.43;6.10;;;13.50;99.90;;;;;;6249470;23;20413;-68
2021/10/14 08:30:55;;;;;;;6.50;5.90;;;13.50;99.90;;;;;;6249140;22;20437;-69
2021/10/14 08:33:22;;;;;;;8.43;6.27;;;13.80;99.90;;;;;;6249226;23;20414;-68
2021/10/14 08:35:50;;;;;;;8.27;6.10;;;14.00;99.90;;;;;;6249082;23;20418;-68
2021/10/14 08:38:17;;;;;;;8.30;6.13;;;14.10;99.90;;;;;;6248799;23;20418;-68
2021/10/14 08:40:44;;;;;;;11.40;5.63;;;14.50;99.90;;;;;;6249033;22;20596;-68
2021/10/14 08:43:14;;;;;;;6.07;5.50;;;14.90;99.90;;;;;;6249177;23;20737;-67
2021/10/14 08:45:42;;;;;;;9.13;5.30;;;15.60;99.90;;;;;;6248836;23;20504;-67
2021/10/14 08:48:09;;;;;;;11.87;6.60;;;16.20;99.90;;;;;;6248663;23;20411;-67
2021/10/14 08:50:39;;;;;;;8.20;6.10;;;16.60;99.90;;;;;;6248953;22;20734;-67
2021/10/14 08:53:08;;;;;;;6.80;6.20;;;16.90;99.90;;;;;;6248325;23;20416;-67
2021/10/14 08:55:38;;;;;;;6.50;5.90;;;17.20;99.90;;;;;;6248791;23;20421;-66
2021/10/14 08:58:06;;;;;;;6.93;5.60;;;17.00;99.90;;;;;;6248870;23;20411;-69
2021/10/14 09:00:34;;;;;;;6.23;5.73;;;16.80;99.90;;;;;;6248582;22;20438;-68
2021/10/14 09:03:01;;;;;;;5.83;5.33;;;16.80;99.90;;;;;;6248808;23;20392;-69
2021/10/14 09:05:30;;;;;;;7.60;6.60;;;16.50;99.90;;;;;;6248276;23;20435;-69
2021/10/14 09:07:57;;;;;;;11.77;6.10;;;16.40;99.90;;;;;;6248807;23;20411;-70
2021/10/14 09:10:25;;;;;;;6.10;5.60;;;16.10;99.90;;;;;;6249473;22;20417;-68
2021/10/14 09:12:51;;;;;;;7.27;6.13;;;15.80;99.90;;;;;;6254888;23;20418;-68
2021/10/14 09:15:19;;;;;;;6.90;6.20;;;15.40;99.90;;;;;;6250174;23;20422;-69
2021/10/14 09:17:53;;;;;;;6.33;5.70;;;15.10;99.90;;;;;;6250165;23;20411;-68
2021/10/14 09:20:28;;;;;;;9.50;5.70;;;14.80;99.90;;;;;;6248797;22;20396;-69
2021/10/14 09:22:56;;;;;;;8.57;5.77;;;14.90;99.90;;;;;;6248662;23;20410;-68
2021/10/14 09:25:35;;;;;;;6.30;5.80;;;14.90;99.90;;;;;;6248586;23;20454;-69
2021/10/14 09:28:14;;;;;;;6.37;5.67;;;15.00;99.90;;;;;;6248497;23;20395;-69
2021/10/14 09:30:46;;;;;;;5.70;5.20;;;15.60;99.90;;;;;;6258790;22;20427;-69
2021/10/14 09:33:34;;;;;;;6.60;5.63;;;16.40;99.90;;;;;;6248622;23;20420;-69
2021/10/14 09:36:12;;;;;;;6.30;5.70;;;16.80;99.90;;;;;;6248231;23;20474;-72
2021/10/14 09:38:39;;;;;;;8.90;5.10;;;17.30;99.90;;;;;;6248761;23;20402;-72
2021/10/14 09:41:11;;;;;;;5.57;5.10;;;17.60;99.90;;;;;;6248497;22;20438;-74
2021/10/14 09:43:39;;;;;;;5.97;5.33;;;18.00;99.90;;;;;;6248633;23;20399;-72
2021/10/14 09:46:06;;;;;;;7.13;6.53;;;18.60;99.90;;;;;;6248629;23;20411;-71
2021/10/14 09:48:35;;;;;;;8.27;5.40;;;18.40;99.00;;;;;;6248415;23;20413;-72
2021/10/14 09:51:02;;;;;;;6.30;5.70;;;18.80;99.20;;;;;;6247482;22;20757;-71
2021/10/14 09:53:29;;;;;;;5.47;4.97;;;19.40;98.00;;;;;;6248357;23;20453;-72
2021/10/14 09:55:56;;;;;;;8.20;4.73;;;20.50;95.90;;;;;;6248371;23;20452;-72
2021/10/14 09:58:24;;;;;;;8.03;5.13;;;21.90;93.60;;;;;;6248149;23;20409;-72
2021/10/14 10:00:52;;;;;;;6.83;5.50;;;22.80;90.60;;;;;;6248268;22;20769;-72
2021/10/14 10:03:21;;;;;;;5.97;5.03;;;22.80;85.20;;;;;;6248637;23;20414;-72
2021/10/14 10:05:50;;;;;;;5.27;4.87;;;22.90;84.30;;;;;;6247851;23;20789;-72
2021/10/14 10:08:26;;;;;;;5.90;5.50;;;23.40;84.00;;;;;;6248155;23;20411;-68
2021/10/14 10:10:55;;;;;;;5.30;4.90;;;23.40;82.30;;;;;;6248323;22;20438;-68
2021/10/14 10:13:22;;;;;;;4.93;4.63;;;23.10;80.20;;;;;;6248147;23;20415;-68
2021/10/14 10:15:50;;;;;;;8.13;5.80;;;24.20;82.30;;;;;;6248411;23;20391;-68
2021/10/14 10:18:41;;;;;;;6.37;4.87;;;24.60;75.10;;;;;;6248439;23;20418;-68
2021/10/14 10:21:09;;;;;;;6.10;5.60;;;25.50;73.00;;;;;;6248498;22;20438;-68
2021/10/14 10:23:47;;;;;;;5.17;4.73;;;25.90;70.20;;;;;;6248292;23;20438;-68
2021/10/14 10:26:52;;;;;;;5.27;4.87;;;26.10;66.40;;;;;;6248076;23;20411;-68
2021/10/14 10:29:46;;;;;;;5.10;4.20;;;25.00;68.80;;;;;;6247800;23;20417;-67
2021/10/14 10:32:19;;;;;;;5.23;3.90;;;25.00;64.40;;;;;;6222253;23;20944;-67
2021/10/14 10:34:55;;;;;;;4.80;3.13;;;24.70;66.50;;;;;;6247661;23;20387;-67
2021/10/14 10:37:33;;;;;;;4.00;3.60;;;23.10;67.90;;;;;;6247168;23;20716;-66
2021/10/14 10:40:02;;;;;;;4.90;3.60;;;23.10;72.80;;;;;;6248027;23;20419;-67
2021/10/14 10:42:31;;;;;;;10.77;3.63;;;22.80;71.50;;;;;;6247288;22;20427;-68
2021/10/14 10:45:07;;;;;;;5.63;4.93;;;22.30;71.50;;;;;;6248465;23;20431;-68
2021/10/14 10:47:47;;;;;;;6.27;3.60;;;21.70;79.50;;;;;;6248131;23;20418;-68
2021/10/14 10:50:21;;;;;;;3.40;2.80;;;21.30;78.50;;;;;;6247600;23;20395;-68
2021/10/14 10:52:49;;;;;;;3.10;2.80;;;20.90;75.50;;;;;;6247602;23;20477;-68
2021/10/14 10:55:49;;;;;;;5.63;2.70;;;21.10;75.60;;;;;;6247580;23;20391;-68
2021/10/14 10:58:16;;;;;;;2.70;2.60;;;20.90;76.10;;;;;;6237763;23;20407;-67
2021/10/14 11:00:45;;;;;;;3.93;3.43;;;20.90;78.30;;;;;;6247582;22;20434;-68
2021/10/14 11:03:32;;;;;;;4.40;3.40;;;21.10;80.50;;;;;;6247935;23;20387;-68
2021/10/14 11:06:00;;;;;;;3.50;3.20;;;21.00;77.30;;;;;;6247816;23;20454;-64
2021/10/14 11:08:28;;;;;;;5.50;4.10;;;20.90;81.60;;;;;;6247752;23;20395;-64
2021/10/14 11:10:57;;;;;;;4.37;4.07;;;20.60;85.60;;;;;;6247760;22;20437;-64
2021/10/14 11:13:26;;;;;;;3.90;3.37;;;20.60;86.80;;;;;;6247341;23;20402;-66
2021/10/14 11:15:54;;;;;;;7.50;2.63;;;20.70;84.10;;;;;;6246883;23;20497;-66
2021/10/14 11:18:23;;;;;;;3.00;2.70;;;20.80;84.00;;;;;;6247501;23;20733;-67
2021/10/14 11:20:57;;;;;;;3.17;2.87;;;20.60;82.60;;;;;;6247224;22;20955;-67
2021/10/14 11:23:26;;;;;;;4.90;2.80;;;20.30;87.10;;;;;;6247898;23;20454;-67
2021/10/14 11:26:06;;;;;;;5.47;2.90;;;20.10;87.00;;;;;;6247413;23;20435;-67
2021/10/14 11:28:54;;;;;;;5.17;3.50;;;19.40;83.90;;;;;;6247270;23;20917;-67
2021/10/14 11:31:24;;;;;;;10.50;3.40;;;19.40;86.60;;;;;;6246953;22;20434;-65
2021/10/14 11:33:51;;;;;;;3.10;2.30;;;19.30;88.30;;;;;;6247522;23;20442;-66
2021/10/14 11:36:20;;;;;;;2.93;2.73;;;19.30;87.20;;;;;;6247905;23;20418;-65
2021/10/14 11:38:57;;;;;;;4.67;2.53;;;19.30;89.10;;;;;;6247472;23;20887;-67
2021/10/14 11:41:24;;;;;;;3.27;3.00;;;19.10;87.10;;;;;;6250426;22;20434;-66
2021/10/14 11:43:55;;;;;;;3.00;2.80;;;18.80;89.30;;;;;;6250411;23;20419;-67
2021/10/14 11:46:23;;;;;;;3.63;2.73;;;18.60;88.80;;;;;;6252492;23;20422;-67
2021/10/14 11:48:56;;;;;;;3.20;2.90;;;18.40;90.70;;;;;;6252534;23;20407;-67
2021/10/14 11:51:24;;;;;;;4.10;3.20;;;18.30;90.50;;;;;;6248770;22;20426;-68
2021/10/14 11:54:04;;;;;;;4.13;3.07;;;18.20;90.90;;;;;;6250843;23;20391;-69
2021/10/14 11:56:32;;;;;;;6.17;3.60;;;18.20;91.40;;;;;;6249856;23;20430;-68
2021/10/14 11:59:03;;;;;;;4.23;3.33;;;18.20;91.50;;;;;;6250759;23;20414;-67
2021/10/14 12:01:33;;;;;;;3.67;3.20;;;18.10;91.30;;;;;;6252654;22;20434;-68
2021/10/14 12:04:02;;;;;;;4.43;3.70;;;17.90;92.10;;;;;;6247742;23;20413;-68
2021/10/14 12:06:31;;;;;;;4.13;3.30;;;17.70;91.50;;;;;;6247466;23;20488;-67
2021/10/14 12:08:58;;;;;;;3.57;3.27;;;17.70;92.00;;;;;;6251013;23;20749;-68
2021/10/14 12:11:26;;;;;;;7.03;5.13;;;17.70;92.10;;;;;;6247413;22;20435;-67
2021/10/14 12:13:57;;;;;;;7.73;5.73;;;17.70;92.90;;;;;;6247123;23;20896;-67
2021/10/14 12:16:29;;;;;;;5.03;3.97;;;17.60;93.10;;;;;;6251490;23;20406;-67
2021/10/14 12:19:11;;;;;;;3.30;3.00;;;17.60;94.30;;;;;;6250142;23;20391;-67
2021/10/14 12:21:41;;;;;;;8.50;3.50;;;17.60;93.90;;;;;;6247539;22;20942;-67
2021/10/14 12:24:11;;;;;;;2.90;2.70;;;17.50;94.10;;;;;;6250731;23;20395;-68
2021/10/14 12:26:40;;;;;;;3.07;2.73;;;17.60;92.50;;;;;;6247427;23;20402;-68
2021/10/14 12:29:28;;;;;;;5.43;3.47;;;17.60;94.20;;;;;;6247299;23;20398;-68
2021/10/14 12:32:09;;;;;;;3.53;2.63;;;17.40;92.90;;;;;;6247329;22;20433;-68
2021/10/14 12:34:48;;;;;;;4.20;3.03;;;17.10;94.00;;;;;;6247676;23;20386;-68
2021/10/14 12:37:17;;;;;;;2.27;2.10;;;17.20;94.90;;;;;;6247122;23;20407;-68
2021/10/14 12:39:44;;;;;;;5.80;2.27;;;17.30;95.20;;;;;;6247576;23;20407;-68
2021/10/14 12:42:13;;;;;;;3.33;2.87;;;17.40;94.00;;;;;;6247249;22;20427;-68
2021/10/14 12:44:55;;;;;;;3.10;2.80;;;17.50;94.20;;;;;;6247018;23;20485;-68
2021/10/14 12:47:29;;;;;;;2.70;2.50;;;17.60;94.10;;;;;;6247089;23;20395;-69
2021/10/14 12:50:14;;;;;;;2.80;2.53;;;17.50;94.50;;;;;;6247401;23;20860;-68
2021/10/14 12:52:43;;;;;;;5.20;3.40;;;17.40;94.40;;;;;;6247537;23;20402;-68
2021/10/14 12:55:11;;;;;;;3.53;2.20;;;17.30;95.10;;;;;;6247913;23;20395;-68
2021/10/14 12:57:39;;;;;;;2.73;2.47;;;17.40;94.70;;;;;;6249930;23;20403;-68
2021/10/14 13:00:08;;;;;;;2.70;2.50;;;17.40;95.20;;;;;;6248520;23;20415;-68
2021/10/14 13:02:34;;;;;;;7.43;3.20;;;17.50;95.10;;;;;;6254184;22;20460;-67
2021/10/14 13:05:01;;;;;;;2.80;2.60;;;17.50;95.20;;;;;;6249422;23;20435;-68
2021/10/14 13:07:28;;;;;;;3.40;2.33;;;17.50;95.30;;;;;;6249625;23;20410;-67
2021/10/14 13:09:58;;;;;;;7.40;2.63;;;17.60;95.10;;;;;;6248976;23;20411;-67
2021/10/14 13:12:25;;;;;;;2.40;2.13;;;17.50;95.10;;;;;;6248783;22;20462;-68
2021/10/14 13:14:51;;;;;;;2.67;2.47;;;17.60;95.70;;;;;;6248909;23;20414;-68
2021/10/14 13:17:18;;;;;;;4.17;2.53;;;17.80;95.70;;;;;;6248800;23;20411;-68
2021/10/14 13:19:45;;;;;;;3.00;2.60;;;17.80;95.00;;;;;;6248714;23;20411;-68
2021/10/14 13:22:11;;;;;;;2.10;1.90;;;17.80;94.40;;;;;;6248992;22;20431;-68
2021/10/14 13:24:38;;;;;;;2.90;2.60;;;17.80;94.20;;;;;;6265236;23;20407;-68
2021/10/14 13:27:06;;;;;;;3.37;3.07;;;18.00;95.20;;;;;;6266153;23;20407;-68
2021/10/14 13:29:33;;;;;;;3.43;2.77;;;17.90;95.30;;;;;;6266447;23;20399;-68
2021/10/14 13:32:00;;;;;;;2.73;2.53;;;18.10;95.50;;;;;;6253722;22;20427;-67
2021/10/14 13:34:27;;;;;;;8.23;2.40;;;18.20;95.70;;;;;;6249582;23;20783;-67
2021/10/14 13:36:53;;;;;;;2.57;2.37;;;18.50;95.30;;;;;;6248991;23;20975;-68
2021/10/14 13:39:20;;;;;;;5.10;2.70;;;18.60;93.50;;;;;;6248670;23;20414;-67
2021/10/14 13:41:48;;;;;;;8.57;2.77;;;18.70;93.90;;;;;;6249505;22;20431;-67
2021/10/14 13:44:19;;;;;;;2.93;2.60;;;18.80;93.60;;;;;;6250207;23;20411;-68
2021/10/14 13:46:47;;;;;;;3.17;2.10;;;18.90;95.10;;;;;;6247671;23;20938;-67
2021/10/14 13:49:14;;;;;;;2.23;2.13;;;18.90;93.70;;;;;;6248094;23;20410;-67
2021/10/14 13:51:41;;;;;;;2.40;2.20;;;18.90;93.80;;;;;;6248014;22;20434;-67
2021/10/14 13:54:07;;;;;;;3.10;1.97;;;18.80;93.10;;;;;;6248043;23;20418;-67
2021/10/14 13:56:34;;;;;;;1.93;1.63;;;18.60;93.50;;;;;;6248646;23;20469;-67
2021/10/14 13:59:01;;;;;;;5.47;2.40;;;18.30;93.40;;;;;;6248520;23;20444;-67
2021/10/14 14:01:29;;;;;;;4.57;1.97;;;18.20;95.10;;;;;;6247724;22;20446;-67
2021/10/14 14:03:56;;;;;;;2.77;2.30;;;18.00;95.10;;;;;;6248162;23;20445;-67
2021/10/14 14:06:25;;;;;;;1.90;1.80;;;18.10;95.30;;;;;;6247964;23;20485;-67
2021/10/14 14:08:52;;;;;;;2.57;2.30;;;18.30;95.80;;;;;;6248555;23;20498;-68
2021/10/14 14:11:19;;;;;;;2.60;1.90;;;18.30;94.10;;;;;;6247947;22;20438;-67
2021/10/14 14:13:46;;;;;;;4.90;2.20;;;18.30;95.20;;;;;;6247896;23;20742;-67
2021/10/14 14:16:12;;;;;;;2.27;2.07;;;18.30;96.50;;;;;;6247556;23;20414;-67
2021/10/14 14:18:40;;;;;;;2.43;2.23;;;17.90;94.80;;;;;;6247735;23;20414;-67
2021/10/14 14:21:07;;;;;;;4.83;2.13;;;18.00;97.20;;;;;;6248095;22;20434;-67
2021/10/14 14:23:34;;;;;;;2.13;1.90;;;18.10;96.20;;;;;;6248706;23;20411;-67
2021/10/14 14:26:00;;;;;;;4.50;2.50;;;18.00;96.70;;;;;;6252341;23;20430;-66
2021/10/14 14:28:27;;;;;;;2.30;2.10;;;17.90;95.00;;;;;;6254241;23;20474;-66
2021/10/14 14:30:54;;;;;;;2.17;1.70;;;17.80;94.90;;;;;;6251708;22;20431;-66
2021/10/14 14:33:21;;;;;;;2.60;2.23;;;17.90;95.90;;;;;;6251567;23;20411;-66
2021/10/14 14:35:49;;;;;;;3.60;2.03;;;17.90;96.00;;;;;;6250250;23;20711;-68
2021/10/14 14:38:15;;;;;;;3.13;1.90;;;18.00;96.30;;;;;;6247802;23;20846;-66
2021/10/14 14:40:42;;;;;;;4.97;2.20;;;18.10;95.60;;;;;;6247757;22;20949;-67
2021/10/14 14:43:10;;;;;;;4.63;2.17;;;18.00;94.20;;;;;;6247686;23;20410;-66
2021/10/14 14:45:36;;;;;;;2.87;2.30;;;17.90;95.70;;;;;;6248001;23;20858;-66
2021/10/14 14:48:03;;;;;;;3.33;2.20;;;17.70;95.00;;;;;;6247765;23;20415;-67
2021/10/14 14:50:42;;;;;;;5.50;2.40;;;17.70;95.20;;;;;;6247665;22;20927;-67
2021/10/14 14:53:11;;;;;;;2.37;2.20;;;17.80;96.60;;;;;;6249301;23;20395;-66
2021/10/14 14:55:38;;;;;;;2.90;2.70;;;17.80;95.50;;;;;;6249187;23;20414;-66
2021/10/14 14:58:07;;;;;;;2.23;2.00;;;17.70;95.60;;;;;;6247629;23;20411;-66
2021/10/14 15:00:35;;;;;;;2.60;2.37;;;17.70;95.00;;;;;;6248454;22;20506;-67
2021/10/14 15:03:02;;;;;;;2.20;1.97;;;17.60;95.20;;;;;;6249082;23;20395;-66
2021/10/14 15:05:28;;;;;;;2.50;2.23;;;17.60;95.60;;;;;;6248502;23;20439;-66
2021/10/14 15:07:55;;;;;;;1.90;1.80;;;17.40;95.60;;;;;;6248861;23;20914;-67
2021/10/14 15:10:23;;;;;;;2.13;2.03;;;17.20;95.80;;;;;;6247701;22;20778;-68
2021/10/14 15:12:50;;;;;;;3.90;2.10;;;17.10;95.90;;;;;;6247863;23;20418;-67
2021/10/14 15:15:17;;;;;;;2.13;2.00;;;17.00;95.50;;;;;;6249299;23;20415;-67
2021/10/14 15:17:43;;;;;;;2.93;1.60;;;16.90;96.10;;;;;;6247162;23;20413;-67
2021/10/14 15:20:10;;;;;;;2.37;1.90;;;16.80;96.40;;;;;;6248346;23;20410;-67
2021/10/14 15:22:37;;;;;;;2.13;1.97;;;16.70;97.00;;;;;;6247287;22;20434;-67
2021/10/14 15:25:06;;;;;;;3.30;2.20;;;16.60;96.80;;;;;;6248097;23;20479;-66
2021/10/14 15:27:34;;;;;;;2.53;2.20;;;16.50;97.50;;;;;;6247311;23;20443;-67
2021/10/14 15:30:00;;;;;;;4.83;2.70;;;16.40;98.20;;;;;;6247799;23;20417;-66
2021/10/14 15:32:27;;;;;;;1.77;1.67;;;16.30;99.30;;;;;;6247240;22;20438;-67
2021/10/14 15:34:54;;;;;;;2.47;2.33;;;16.30;99.30;;;;;;6247018;23;20896;-66
2021/10/14 15:37:21;;;;;;;2.43;2.23;;;16.20;99.50;;;;;;6253490;23;20457;-66
2021/10/14 15:39:50;;;;;;;4.03;2.13;;;16.10;99.60;;;;;;6247282;23;20411;-67
2021/10/14 15:42:17;;;;;;;2.70;2.07;;;15.90;99.90;;;;;;6247154;22;20439;-66
2021/10/14 15:44:46;;;;;;;3.50;2.47;;;15.90;99.90;;;;;;6247658;23;20414;-66
2021/10/14 15:47:13;;;;;;;2.33;2.00;;;15.80;99.90;;;;;;6264235;23;20431;-66
2021/10/14 15:49:40;;;;;;;2.30;2.10;;;15.70;99.90;;;;;;6247936;23;20411;-67
2021/10/14 15:52:07;;;;;;;2.47;2.27;;;15.70;99.90;;;;;;6248301;22;20427;-68
2021/10/14 15:54:34;;;;;;;2.63;2.43;;;15.60;99.90;;;;;;6249127;23;20396;-67
2021/10/14 15:57:01;;;;;;;3.80;2.40;;;15.50;99.90;;;;;;6249214;23;20411;-68
2021/10/14 15:59:28;;;;;;;4.43;2.70;;;15.50;99.90;;;;;;6248903;23;20417;-67
2021/10/14 16:01:56;;;;;;;9.13;3.20;;;15.40;99.90;;;;;;6246641;22;20443;-68
2021/10/14 16:04:23;;;;;;;5.90;3.00;;;15.30;99.90;;;;;;6246948;23;20774;-67
2021/10/14 16:06:49;;;;;;;10.40;3.20;;;15.20;99.90;;;;;;6247051;23;20486;-67
2021/10/14 16:09:16;;;;;;;5.97;2.70;;;15.20;99.90;;;;;;6247133;23;20415;-67
2021/10/14 16:11:43;;;;;;;11.20;2.73;;;15.20;99.90;;;;;;6247084;22;20435;-68
2021/10/14 16:14:09;;;;;;;5.80;2.90;;;15.10;99.90;;;;;;6246820;23;20415;-67
2021/10/14 16:16:37;;;;;;;4.97;2.50;;;15.00;99.90;;;;;;6246931;23;20411;-67
2021/10/14 16:19:06;;;;;;;3.57;2.00;;;14.90;99.90;;;;;;6247057;23;20489;-67
2021/10/14 16:21:33;;;;;;;3.53;2.37;;;14.80;99.90;;;;;;6246831;22;20488;-67
2021/10/14 16:24:00;;;;;;;3.87;2.60;;;14.70;99.90;;;;;;6246827;23;20411;-67
2021/10/14 16:26:26;;;;;;;2.77;2.57;;;14.70;99.90;;;;;;6246870;23;20439;-67
2021/10/14 16:28:53;;;;;;;4.10;2.97;;;14.60;99.90;;;;;;6246251;23;20736;-67
2021/10/14 16:31:24;;;;;;;3.53;2.33;;;14.50;99.90;;;;;;6248495;22;20431;-67
2021/10/14 16:36:42;;;;;;;2.83;2.50;;;14.40;99.90;;;;;;6225130;23;20479;-67
2021/10/14 16:39:11;;;;;;;5.53;3.10;;;14.20;99.90;;;;;;6248814;23;20415;-67
2021/10/14 16:41:38;;;;;;;4.27;2.97;;;14.20;99.90;;;;;;6248443;22;21010;-67
2021/10/14 16:44:05;;;;;;;4.80;3.67;;;14.10;99.90;;;;;;6248842;23;20422;-67
2021/10/14 16:46:32;;;;;;;4.20;3.80;;;14.00;99.90;;;;;;6248796;23;20488;-67
2021/10/14 16:49:01;;;;;;;4.23;3.83;;;13.90;99.90;;;;;;6255892;23;20406;-67
2021/10/14 16:51:28;;;;;;;4.43;4.10;;;13.90;99.90;;;;;;6265752;22;20434;-67
2021/10/14 16:53:56;;;;;;;6.90;3.50;;;13.80;99.90;;;;;;6249780;23;20417;-67
2021/10/14 16:56:23;;;;;;;4.30;3.90;;;13.70;99.90;;;;;;6248572;23;20923;-67